General Abelardo L Rodrig, Mexico

6:04 PM PDT on August 04, 2015 (GMT -0700)
Gen Abelardo L Rodriguez International | | Change Station
CLOSE
Current Station
Airport
Location: Tijuana,
Elevation: 499 ft
Nearby Weather Stations

Elev 499 ft 32.54 °N, 116.97 °W | Updated 20 minutes ago

Clear
Clear
79 °F
Feels Like 79 °F
N
10
Wind Variable Wind from WNW

Today
High -- | Low -- °F
--% Chance of Precip.
Yesterday
High -- | Low -- °F
Precip. -- in
6:04 AM 7:43 PM
Waning Gibbous, 73% visible
Pressure 29.91 in
Visibility 10.0 miles
Clouds Clear
Dew Point 61 °F
Humidity 54%
Rainfall 0.00 in
Snow Depth Not available.
UV 2 out of 12
Pollen Not available.
Air Quality Not available.
Flu Activity Not available.
METAR MMTJ 050044Z 29009KT 10SM SKC 26/16 A2991 RMK HZY ST W

More Conditions Fewer Conditions

Pressure 29.91 in
Visibility 10.0 miles
Clouds Clear
Dew Point 61 °F
Humidity 54%
Rainfall 0.00 in
Snow Depth Not available.
UV 2 out of 12
Pollen Not available.
Air Quality Not available.
Flu Activity Not available.
METAR MMTJ 050044Z 29009KT 10SM SKC 26/16 A2991 RMK HZY ST W

More Conditions Fewer Conditions

10-Day Weather Forecast

×

Almanac

Astronomy

Aug. 04, 2015 Rise Set
Actual Time
Civil Twilight
Nautical Twilight
Astronomical Twilight
Moon
Length of Visible Light
Length of Day
Tomorrow will be .
, % of the Moon is Illuminated

Today's Extremes

Country Highs Country Lows

Community

WunderPhotos

Upload Photos

1,844,049 photos uploaded!

WunderBlogs® & News

Nearby

Air Quality

  Air Quality AQ Index Pollutant
Not available.

Snow Depth

Station Depth Elevation

Earthquake Activity

City Distance Mag. Time & Date
Minimum magnitude displayed is 2.5.

Coastal Water Temperatures

Place Temperature

Stations

Nearby Weather Stations

Station Location Temp. Windchill Dew Point Humidity Wind Precip. Elev Updated Type